Time;durP1;ratioP1;P1;durP2;ratioP2;P2;SDS_P1;SDS_P2;PMS_P1;PMS_P2;Temp;Humidity;BMP_temperature;BMP_pressure;BME280_temperature;BME280_humidity;BME280_pressure;Samples;Min_cycle;Max_cycle;Signal;HPM_P1;HPM_P2
2023/07/30 00:00:07;;;;;;;2.33;2.10;;;15.70;1.00;;;;;;8250211;28;20191;-70
2023/07/30 00:04:08;;;;;;;2.33;1.93;;;15.60;1.00;;;;;;8239261;28;20386;-66
2023/07/30 00:08:08;;;;;;;2.30;2.10;;;15.60;99.90;;;;;;8247361;28;20218;-70
2023/07/30 00:12:09;;;;;;;2.37;2.00;;;15.60;99.90;;;;;;8246561;28;20210;-66
2023/07/30 00:16:10;;;;;;;4.23;2.47;;;15.60;99.90;;;;;;8249041;28;20218;-68
2023/07/30 00:20:11;;;;;;;4.57;2.30;;;15.50;1.00;;;;;;8249359;28;20195;-63
2023/07/30 00:24:14;;;;;;;3.23;2.30;;;15.50;1.00;;;;;;8239292;28;20192;-61
2023/07/30 00:28:15;;;;;;;2.80;2.20;;;15.50;99.90;;;;;;8239554;28;20206;-61
2023/07/30 00:32:17;;;;;;;2.13;1.83;;;15.50;99.90;;;;;;8249195;28;20543;-61
2023/07/30 00:36:17;;;;;;;3.53;2.20;;;15.40;1.00;;;;;;8239616;28;20188;-62
2023/07/30 00:40:18;;;;;;;2.67;2.03;;;15.40;99.90;;;;;;8245966;28;20278;-60
2023/07/30 00:44:19;;;;;;;2.70;2.00;;;15.40;1.00;;;;;;8243161;28;20196;-61
2023/07/30 00:48:20;;;;;;;3.17;2.50;;;15.40;1.00;;;;;;8242401;28;20184;-62
2023/07/30 00:52:21;;;;;;;4.53;2.10;;;15.40;99.90;;;;;;8240267;28;20198;-61
2023/07/30 00:56:22;;;;;;;3.73;2.00;;;15.30;99.90;;;;;;8241192;28;20195;-61
2023/07/30 01:00:24;;;;;;;4.67;2.50;;;15.30;1.00;;;;;;8243548;28;20203;-59
2023/07/30 01:04:25;;;;;;;3.50;2.07;;;15.30;1.00;;;;;;8233124;28;20188;-62
2023/07/30 01:08:27;;;;;;;2.80;2.40;;;15.30;99.90;;;;;;8240393;28;20218;-61
2023/07/30 01:12:30;;;;;;;2.67;2.37;;;15.30;1.00;;;;;;8234648;28;20188;-60
2023/07/30 01:16:31;;;;;;;2.23;1.90;;;15.30;1.00;;;;;;8261776;28;20203;-62
2023/07/30 01:20:32;;;;;;;2.20;1.70;;;15.30;1.00;;;;;;8242259;28;20208;-62
2023/07/30 01:24:33;;;;;;;2.93;2.43;;;15.30;1.00;;;;;;8244326;28;20199;-62
2023/07/30 01:28:38;;;;;;;3.20;2.10;;;15.30;1.00;;;;;;8244182;28;20364;-66
2023/07/30 01:32:40;;;;;;;4.97;2.13;;;15.30;99.90;;;;;;8244505;28;20302;-67
2023/07/30 01:36:41;;;;;;;4.10;1.97;;;15.30;99.90;;;;;;8241548;28;20184;-67
2023/07/30 01:40:42;;;;;;;4.57;2.20;;;15.30;1.00;;;;;;8242917;28;20200;-70
2023/07/30 01:44:43;;;;;;;4.37;2.27;;;15.30;99.90;;;;;;8249656;28;20198;-67
2023/07/30 01:48:44;;;;;;;4.40;2.07;;;15.30;99.90;;;;;;8242864;28;20212;-68
2023/07/30 01:52:45;;;;;;;3.33;2.10;;;15.20;99.90;;;;;;8251313;28;20266;-67
2023/07/30 01:56:45;;;;;;;4.03;2.17;;;15.20;1.00;;;;;;8241405;28;20184;-66
2023/07/30 02:00:46;;;;;;;5.37;2.03;;;15.10;99.90;;;;;;8238408;28;20310;-68
2023/07/30 02:04:47;;;;;;;2.13;1.93;;;15.00;1.00;;;;;;8241998;28;20214;-67
2023/07/30 02:08:48;;;;;;;3.97;2.20;;;15.00;50.40;;;;;;8246286;28;20229;-67
2023/07/30 02:12:49;;;;;;;5.13;2.20;;;15.00;99.90;;;;;;8259043;28;20196;-64
2023/07/30 02:16:49;;;;;;;3.20;2.20;;;15.00;99.90;;;;;;8238788;28;20212;-64
2023/07/30 02:20:50;;;;;;;2.40;2.20;;;14.90;1.00;;;;;;8245218;28;20199;-65
2023/07/30 02:24:51;;;;;;;5.90;2.50;;;15.00;99.90;;;;;;8243478;28;20264;-67
2023/07/30 02:28:52;;;;;;;5.37;2.30;;;15.00;99.90;;;;;;8239937;28;20234;-69
2023/07/30 02:32:52;;;;;;;3.70;2.30;;;15.00;99.90;;;;;;8242691;28;20190;-66
2023/07/30 02:36:53;;;;;;;2.20;2.00;;;15.10;43.10;;;;;;8242091;28;20680;-66
2023/07/30 02:40:54;;;;;;;5.47;2.30;;;15.00;99.90;;;;;;8242202;28;20249;-70
2023/07/30 02:44:54;;;;;;;8.47;2.70;;;15.00;99.90;;;;;;8235920;28;20203;-68
2023/07/30 02:48:55;;;;;;;2.43;2.13;;;15.00;99.90;;;;;;8243183;28;20207;-67
2023/07/30 02:52:56;;;;;;;5.23;2.23;;;15.00;66.10;;;;;;8243843;28;20190;-66
2023/07/30 02:56:56;;;;;;;2.90;1.97;;;15.00;1.00;;;;;;8240198;28;20191;-66
2023/07/30 03:01:09;;;;;;;2.43;1.90;;;14.90;1.00;;;;;;8236985;28;20341;-70
2023/07/30 03:05:10;;;;;;;2.50;2.20;;;14.90;1.00;;;;;;8251220;28;20278;-65
2023/07/30 03:09:11;;;;;;;3.73;2.63;;;14.90;70.70;;;;;;8237775;28;20218;-67
2023/07/30 03:13:12;;;;;;;4.73;2.40;;;14.90;99.90;;;;;;8248652;28;20184;-67
2023/07/30 03:17:12;;;;;;;3.17;2.03;;;14.90;99.90;;;;;;8231266;28;20191;-64
2023/07/30 03:21:13;;;;;;;3.53;2.33;;;14.90;99.90;;;;;;8232942;28;20184;-67
2023/07/30 03:25:14;;;;;;;2.20;1.90;;;15.00;37.20;;;;;;8244834;28;20182;-69
2023/07/30 03:29:15;;;;;;;4.23;1.87;;;15.00;99.90;;;;;;8238770;28;20246;-69
2023/07/30 03:33:16;;;;;;;3.63;2.00;;;15.10;1.00;;;;;;8237942;28;20403;-67
2023/07/30 03:37:17;;;;;;;5.73;2.63;;;15.10;99.90;;;;;;8251349;28;20189;-66
2023/07/30 03:41:17;;;;;;;3.80;2.20;;;15.20;1.00;;;;;;8244210;28;20282;-69
2023/07/30 03:45:18;;;;;;;2.80;2.20;;;15.30;99.90;;;;;;8246559;28;20187;-69
2023/07/30 03:49:19;;;;;;;4.73;2.43;;;15.30;13.40;;;;;;8246762;28;20281;-68
2023/07/30 03:53:20;;;;;;;6.27;2.87;;;15.40;99.90;;;;;;8247346;28;21265;-70
2023/07/30 03:57:20;;;;;;;3.20;2.03;;;15.50;1.00;;;;;;8240445;28;20946;-68
2023/07/30 04:01:21;;;;;;;3.10;2.60;;;15.70;99.90;;;;;;8246201;28;20273;-66
2023/07/30 04:05:22;;;;;;;4.50;1.83;;;16.30;1.00;;;;;;8243239;28;20192;-65
2023/07/30 04:09:23;;;;;;;2.50;1.57;;;17.30;1.00;;;;;;8246306;28;20215;-68
2023/07/30 04:13:23;;;;;;;3.33;1.80;;;18.50;99.90;;;;;;8241053;28;20184;-66
2023/07/30 04:17:24;;;;;;;3.17;2.00;;;19.40;1.00;;;;;;8242840;28;20286;-66
2023/07/30 04:21:24;;;;;;;4.47;1.87;;;20.10;1.00;;;;;;8243441;28;20196;-69
2023/07/30 04:25:25;;;;;;;1.50;1.37;;;20.70;1.00;;;;;;8244607;28;20212;-66
2023/07/30 04:29:26;;;;;;;3.70;1.60;;;21.20;1.00;;;;;;8243992;28;20286;-65
2023/07/30 04:33:27;;;;;;;1.83;1.47;;;21.60;1.00;;;;;;8246992;28;20188;-69
2023/07/30 04:37:27;;;;;;;2.83;1.80;;;22.00;1.00;;;;;;8241241;28;20194;-67
2023/07/30 04:41:28;;;;;;;4.20;1.83;;;22.40;1.00;;;;;;8247940;28;20285;-68
2023/07/30 04:45:28;;;;;;;4.27;1.70;;;22.60;1.00;;;;;;8240520;28;20195;-65
2023/07/30 04:49:29;;;;;;;2.97;1.47;;;22.90;1.00;;;;;;8240745;28;20611;-67
2023/07/30 04:53:30;;;;;;;5.87;1.60;;;23.10;1.00;;;;;;8240897;28;20184;-65
2023/07/30 04:57:30;;;;;;;4.73;1.60;;;23.40;1.00;;;;;;8245528;28;20184;-68
2023/07/30 05:01:31;;;;;;;3.47;1.50;;;23.40;1.00;;;;;;8242060;28;20247;-61
2023/07/30 05:05:32;;;;;;;2.70;1.40;;;23.40;1.00;;;;;;8242563;28;20198;-62
2023/07/30 05:09:32;;;;;;;2.80;1.40;;;23.40;1.00;;;;;;8237152;28;20224;-63
2023/07/30 05:13:33;;;;;;;4.00;1.57;;;22.90;1.00;;;;;;8243590;28;20251;-61
2023/07/30 05:17:34;;;;;;;1.37;1.23;;;22.40;1.00;;;;;;8236741;28;20204;-61
2023/07/30 05:21:35;;;;;;;6.20;1.63;;;21.70;1.00;;;;;;8238349;28;20213;-60
2023/07/30 05:25:35;;;;;;;1.60;1.50;;;21.30;1.00;;;;;;8235449;28;20255;-60
2023/07/30 05:29:36;;;;;;;2.73;1.30;;;21.00;1.00;;;;;;8245690;28;20220;-60
2023/07/30 05:33:37;;;;;;;3.03;1.40;;;20.80;1.00;;;;;;8234464;28;20188;-62
2023/07/30 05:37:38;;;;;;;2.83;1.50;;;20.70;1.00;;;;;;8240679;28;20185;-61
2023/07/30 05:41:39;;;;;;;1.53;1.43;;;20.70;1.00;;;;;;8236376;28;20267;-61
2023/07/30 05:45:39;;;;;;;3.83;1.77;;;20.70;1.00;;;;;;8237763;28;20192;-65
2023/07/30 05:49:40;;;;;;;3.43;1.77;;;20.70;1.00;;;;;;8232458;28;20571;-64
2023/07/30 05:53:41;;;;;;;5.57;1.30;;;20.70;1.00;;;;;;8230499;28;20194;-61
2023/07/30 05:57:42;;;;;;;3.43;1.80;;;20.80;1.00;;;;;;8230352;28;20187;-61
2023/07/30 06:01:42;;;;;;;3.23;1.50;;;21.00;1.00;;;;;;8229776;28;20220;-61
2023/07/30 06:05:43;;;;;;;2.67;1.43;;;21.10;1.00;;;;;;8231044;28;20192;-60
2023/07/30 06:09:45;;;;;;;2.03;1.57;;;21.20;1.00;;;;;;8224373;28;20274;-65
2023/07/30 06:13:45;;;;;;;3.23;1.73;;;21.30;1.00;;;;;;8231102;28;20184;-61
2023/07/30 06:17:46;;;;;;;1.73;1.30;;;21.30;1.00;;;;;;8233852;28;20192;-59
2023/07/30 06:21:47;;;;;;;3.60;1.43;;;21.40;1.00;;;;;;8232090;28;20226;-60
2023/07/30 06:25:48;;;;;;;5.43;2.30;;;21.70;1.00;;;;;;8227980;28;20188;-62
2023/07/30 06:29:48;;;;;;;2.47;1.73;;;21.70;1.00;;;;;;8233205;28;20215;-63
2023/07/30 06:33:49;;;;;;;2.70;1.60;;;21.80;1.00;;;;;;8239370;28;20185;-63
2023/07/30 06:37:51;;;;;;;2.00;1.57;;;22.10;1.00;;;;;;8233291;28;20391;-61
2023/07/30 06:41:51;;;;;;;2.80;1.70;;;22.20;1.00;;;;;;8234494;28;20203;-62
2023/07/30 06:45:54;;;;;;;4.17;1.70;;;22.30;1.00;;;;;;8232074;28;20187;-62
2023/07/30 06:49:55;;;;;;;4.37;1.60;;;22.80;1.00;;;;;;8222532;28;20629;-64
2023/07/30 06:53:55;;;;;;;3.20;1.50;;;23.20;1.00;;;;;;8231990;28;20428;-62
2023/07/30 06:57:56;;;;;;;4.70;1.83;;;23.80;1.00;;;;;;8225471;28;20183;-63
2023/07/30 07:01:57;;;;;;;1.90;1.50;;;24.30;1.00;;;;;;8231533;28;20190;-63
2023/07/30 07:05:58;;;;;;;2.67;1.27;;;24.70;99.90;;;;;;8237289;28;20183;-64
2023/07/30 07:09:58;;;;;;;4.07;1.80;;;25.00;99.90;;;;;;8240748;28;20215;-63
2023/07/30 07:13:59;;;;;;;2.42;1.38;;;25.00;99.90;;;;;;8243411;28;20192;-64
2023/07/30 07:18:00;;;;;;;1.97;1.50;;;25.20;99.90;;;;;;8234408;28;20216;-64
2023/07/30 07:22:00;;;;;;;3.42;1.33;;;25.40;99.90;;;;;;8237116;28;20184;-64
2023/07/30 07:26:02;;;;;;;2.22;1.30;;;25.70;99.90;;;;;;8237141;28;20183;-63
2023/07/30 07:30:03;;;;;;;1.77;1.40;;;25.80;99.90;;;;;;8237094;28;20212;-67
2023/07/30 07:34:04;;;;;;;2.28;1.55;;;25.80;99.90;;;;;;8229647;28;20263;-66
2023/07/30 07:38:05;;;;;;;2.25;1.20;;;25.80;99.90;;;;;;8231045;28;20188;-66
2023/07/30 07:42:06;;;;;;;2.25;1.38;;;25.90;99.90;;;;;;8222751;28;20195;-67
2023/07/30 07:46:13;;;;;;;1.73;1.50;;;25.80;99.90;;;;;;8231302;28;20191;-67
2023/07/30 07:50:14;;;;;;;2.25;1.45;;;26.00;99.90;;;;;;8232056;28;20275;-69
2023/07/30 07:54:15;;;;;;;2.75;1.20;;;26.40;99.90;;;;;;8232845;28;20384;-66
2023/07/30 07:58:16;;;;;;;1.85;1.30;;;26.70;99.90;;;;;;8223904;28;20184;-67
2023/07/30 08:02:16;;;;;;;4.60;1.40;;;26.70;99.90;;;;;;8227174;28;20183;-67
2023/07/30 08:06:17;;;;;;;2.00;1.42;;;26.80;99.90;;;;;;8221146;28;20222;-67
2023/07/30 08:10:18;;;;;;;1.45;1.23;;;26.80;99.90;;;;;;8228685;28;20323;-69
2023/07/30 08:14:19;;;;;;;1.25;1.15;;;26.60;99.90;;;;;;8240000;28;20633;-67
2023/07/30 08:18:19;;;;;;;2.20;1.30;;;26.50;99.90;;;;;;8240968;28;20188;-67
2023/07/30 08:22:20;;;;;;;2.97;1.48;;;26.50;99.90;;;;;;8239900;28;20188;-68
2023/07/30 08:26:21;;;;;;;2.80;2.08;;;26.90;99.90;;;;;;8234456;28;20607;-70
2023/07/30 08:30:22;;;;;;;3.35;1.70;;;27.50;99.90;;;;;;8236120;28;20218;-69
2023/07/30 08:34:23;;;;;;;2.03;1.80;;;27.60;99.90;;;;;;8237598;28;20175;-69
2023/07/30 08:38:24;;;;;;;2.03;1.55;;;27.90;99.90;;;;;;8230862;28;20267;-67
2023/07/30 08:42:25;;;;;;;2.05;1.50;;;28.40;99.90;;;;;;8235541;28;20188;-68
2023/07/30 08:46:27;;;;;;;2.42;1.77;;;28.50;99.90;;;;;;8232381;28;20279;-68
2023/07/30 08:50:29;;;;;;;1.95;1.50;;;28.40;99.90;;;;;;8232865;28;20219;-70
2023/07/30 08:54:31;;;;;;;1.70;1.60;;;27.80;99.90;;;;;;8235989;28;20557;-69
2023/07/30 08:58:34;;;;;;;1.90;1.70;;;27.70;99.90;;;;;;8234356;28;20534;-68
2023/07/30 09:02:53;;;;;;;2.10;1.80;;;27.80;99.90;;;;;;8234999;28;20192;-68
2023/07/30 09:06:54;;;;;;;2.63;1.70;;;27.20;99.90;;;;;;8234426;28;20218;-68
2023/07/30 09:10:55;;;;;;;3.08;1.60;;;27.40;99.90;;;;;;8234853;28;20266;-69
2023/07/30 09:14:56;;;;;;;3.03;1.75;;;27.60;99.90;;;;;;8243577;28;20695;-67
2023/07/30 09:18:57;;;;;;;1.98;1.67;;;27.10;99.90;;;;;;8241152;28;20203;-67
2023/07/30 09:22:59;;;;;;;2.95;1.83;;;26.60;99.90;;;;;;8243806;28;20181;-67
2023/07/30 09:27:03;;;;;;;1.80;1.55;;;26.90;99.90;;;;;;8243268;28;20190;-68
2023/07/30 09:31:06;;;;;;;1.92;1.50;;;26.70;99.90;;;;;;8240558;28;20258;-67
2023/07/30 09:35:08;;;;;;;1.50;1.20;;;26.40;99.90;;;;;;8247523;28;20175;-68
2023/07/30 09:39:26;;;;;;;1.80;1.25;;;25.90;99.90;;;;;;8236875;28;20266;-66
2023/07/30 09:43:34;;;;;;;1.85;1.75;;;25.40;99.90;;;;;;8252014;28;20192;-69
2023/07/30 09:47:38;;;;;;;2.30;2.05;;;25.30;99.90;;;;;;8226692;28;20196;-69
2023/07/30 09:51:39;;;;;;;1.95;1.50;;;25.20;99.90;;;;;;8232456;28;20208;-67
2023/07/30 09:55:40;;;;;;;2.08;1.50;;;24.90;99.90;;;;;;8231626;28;20191;-64
2023/07/30 09:59:41;;;;;;;3.10;1.60;;;24.80;99.90;;;;;;8232053;28;20323;-63
2023/07/30 10:03:42;;;;;;;1.73;1.57;;;24.30;99.90;;;;;;8237278;28;20183;-64
2023/07/30 10:07:53;;;;;;;2.83;1.50;;;24.10;99.90;;;;;;8236770;28;20187;-64
2023/07/30 10:11:54;;;;;;;1.87;1.60;;;24.00;99.90;;;;;;8218097;28;20219;-67
2023/07/30 10:15:57;;;;;;;1.73;1.50;;;24.10;99.90;;;;;;8214828;28;20208;-62
2023/07/30 10:20:24;;;;;;;2.10;1.50;;;24.50;99.90;;;;;;8232403;28;20188;-64
2023/07/30 10:24:26;;;;;;;1.57;1.37;;;25.00;99.90;;;;;;8232815;28;20612;-63
2023/07/30 10:28:36;;;;;;;1.30;1.20;;;25.20;99.90;;;;;;8234427;28;20195;-65
2023/07/30 10:33:09;;;;;;;1.50;1.40;;;25.30;99.90;;;;;;8227592;28;20191;-65
2023/07/30 10:37:10;;;;;;;1.77;1.30;;;25.80;99.90;;;;;;8242485;28;20655;-65
2023/07/30 10:41:13;;;;;;;1.95;0.98;;;26.50;99.90;;;;;;8231628;28;20354;-66
2023/07/30 10:45:14;;;;;;;3.08;1.30;;;26.70;99.90;;;;;;8233975;28;20298;-63
2023/07/30 10:49:15;;;;;;;1.40;1.27;;;26.50;99.90;;;;;;8231639;28;20207;-63
2023/07/30 10:53:18;;;;;;;1.77;1.13;;;26.20;99.90;;;;;;8239754;28;20180;-65
2023/07/30 10:57:19;;;;;;;11.23;1.40;;;26.40;99.90;;;;;;8231990;28;20181;-67
2023/07/30 11:01:23;;;;;;;1.42;1.33;;;26.50;99.90;;;;;;8236875;28;20659;-68
2023/07/30 11:05:25;;;;;;;1.25;1.00;;;26.50;99.90;;;;;;8234252;28;20188;-67
2023/07/30 11:09:27;;;;;;;1.85;1.05;;;26.70;99.90;;;;;;8232210;28;20553;-70
2023/07/30 11:13:28;;;;;;;1.63;1.08;;;26.80;99.90;;;;;;8234574;28;20188;-67
2023/07/30 11:17:29;;;;;;;2.05;1.30;;;26.60;99.90;;;;;;8237979;28;20195;-67
2023/07/30 11:21:29;;;;;;;1.88;1.10;;;26.90;99.90;;;;;;8237079;28;20223;-67
2023/07/30 11:25:30;;;;;;;1.13;1.00;;;27.30;99.90;;;;;;8236880;28;20243;-70
2023/07/30 11:29:31;;;;;;;3.10;1.30;;;27.70;99.90;;;;;;8240819;28;20310;-66
2023/07/30 11:33:33;;;;;;;2.33;0.90;;;28.00;99.90;;;;;;8242486;28;20191;-67
2023/07/30 11:37:38;;;;;;;3.13;1.20;;;27.90;99.90;;;;;;8237750;28;20203;-70
2023/07/30 11:41:39;;;;;;;1.98;1.00;;;27.90;99.90;;;;;;8235038;28;20199;-70
2023/07/30 11:45:40;;;;;;;1.88;1.15;;;27.50;99.90;;;;;;8246428;28;20191;-67
2023/07/30 11:49:40;;;;;;;1.23;1.13;;;27.30;99.90;;;;;;8239615;28;20215;-67
2023/07/30 11:53:47;;;;;;;1.05;0.90;;;26.60;99.90;;;;;;8240677;28;20207;-69
2023/07/30 11:57:48;;;;;;;1.58;1.27;;;26.30;99.90;;;;;;8242061;28;20533;-67
2023/07/30 12:01:48;;;;;;;2.88;1.20;;;26.00;99.90;;;;;;8235672;28;20182;-68
2023/07/30 12:05:50;;;;;;;1.15;0.95;;;25.70;99.90;;;;;;8235078;28;20196;-69
2023/07/30 12:09:50;;;;;;;2.17;1.20;;;25.60;99.90;;;;;;8239018;28;20217;-62
2023/07/30 12:13:51;;;;;;;1.30;1.10;;;25.80;99.90;;;;;;8234351;28;20257;-64
2023/07/30 12:17:52;;;;;;;2.65;1.20;;;26.00;99.90;;;;;;8240230;28;20256;-63
2023/07/30 12:21:54;;;;;;;3.03;1.15;;;26.10;99.90;;;;;;8240872;28;20222;-65
2023/07/30 12:25:54;;;;;;;1.58;1.15;;;26.50;99.90;;;;;;8232414;28;20215;-62
2023/07/30 12:29:55;;;;;;;1.63;1.25;;;27.00;99.90;;;;;;8232663;28;20216;-65
2023/07/30 12:33:56;;;;;;;2.65;1.08;;;27.50;99.90;;;;;;8236571;28;20208;-65
2023/07/30 12:37:58;;;;;;;1.20;1.00;;;28.10;99.90;;;;;;8235425;28;20184;-62
2023/07/30 12:41:59;;;;;;;2.55;1.20;;;28.40;99.90;;;;;;8234614;28;20184;-66
2023/07/30 12:45:59;;;;;;;2.58;1.40;;;28.00;99.90;;;;;;8232962;28;20188;-62
2023/07/30 12:50:00;;;;;;;1.30;1.20;;;27.00;99.90;;;;;;8238147;28;20223;-68
2023/07/30 12:54:01;;;;;;;1.48;1.38;;;26.30;99.90;;;;;;8235062;28;20657;-66
2023/07/30 12:58:03;;;;;;;2.35;1.67;;;26.40;99.90;;;;;;8235678;28;20219;-64
2023/07/30 13:02:04;;;;;;;1.88;1.50;;;26.30;99.90;;;;;;8232699;28;20642;-64
2023/07/30 13:06:05;;;;;;;7.57;1.73;;;25.90;99.90;;;;;;8245158;28;20198;-63
2023/07/30 13:10:07;;;;;;;1.70;1.50;;;26.20;99.90;;;;;;8238655;28;20215;-65
2023/07/30 13:14:08;;;;;;;1.50;1.17;;;26.80;99.90;;;;;;8241487;28;20184;-65
2023/07/30 13:18:08;;;;;;;1.40;1.27;;;27.10;99.90;;;;;;8233470;28;20194;-69
2023/07/30 13:22:09;;;;;;;1.60;1.33;;;27.30;99.90;;;;;;8237627;28;20278;-68
2023/07/30 13:26:10;;;;;;;1.77;1.15;;;27.50;99.90;;;;;;8235312;28;20203;-67
2023/07/30 13:30:11;;;;;;;1.80;1.55;;;27.50;99.90;;;;;;8237451;28;20211;-69
2023/07/30 13:34:11;;;;;;;1.75;1.10;;;27.70;99.90;;;;;;8229919;28;20191;-67
2023/07/30 13:38:12;;;;;;;2.38;1.38;;;27.60;99.90;;;;;;8231835;28;20187;-67
2023/07/30 13:42:13;;;;;;;2.72;1.30;;;27.60;99.90;;;;;;8236398;28;20511;-67
2023/07/30 13:46:14;;;;;;;2.08;1.15;;;27.70;99.90;;;;;;8232059;28;20184;-68
2023/07/30 13:50:14;;;;;;;1.13;1.00;;;27.90;99.90;;;;;;8237778;28;20207;-66
2023/07/30 13:54:15;;;;;;;2.47;1.13;;;28.00;99.90;;;;;;8237201;28;20190;-68
2023/07/30 13:58:16;;;;;;;3.30;1.30;;;28.00;99.90;;;;;;8229943;28;20643;-68
2023/07/30 14:02:17;;;;;;;3.25;1.02;;;27.90;99.90;;;;;;8230510;28;20194;-69
2023/07/30 14:06:18;;;;;;;1.40;0.90;;;28.00;99.90;;;;;;8231111;28;20203;-68
2023/07/30 14:10:19;;;;;;;1.20;1.10;;;27.70;99.90;;;;;;8239567;28;20222;-69
2023/07/30 14:14:22;;;;;;;1.23;1.10;;;27.80;99.90;;;;;;8232170;28;20183;-66
2023/07/30 14:18:24;;;;;;;1.13;1.02;;;28.10;99.90;;;;;;8232813;28;20188;-68
2023/07/30 14:22:24;;;;;;;1.95;1.10;;;28.30;99.90;;;;;;8233479;28;20203;-68
2023/07/30 14:26:25;;;;;;;3.85;1.15;;;28.50;99.90;;;;;;8231029;28;20185;-65
2023/07/30 14:30:26;;;;;;;2.10;1.40;;;28.30;99.90;;;;;;8228459;28;20208;-67
2023/07/30 14:34:27;;;;;;;3.08;1.83;;;27.80;99.90;;;;;;8229434;28;20190;-68
2023/07/30 14:38:28;;;;;;;3.80;1.67;;;27.20;99.90;;;;;;8234237;28;20184;-68
2023/07/30 14:42:29;;;;;;;2.10;1.63;;;26.60;99.90;;;;;;8225710;28;20187;-68
2023/07/30 14:46:30;;;;;;;3.90;1.77;;;26.20;99.90;;;;;;8225569;28;20199;-67
2023/07/30 14:50:31;;;;;;;3.25;2.10;;;26.20;99.90;;;;;;8232952;28;20242;-68
2023/07/30 14:54:31;;;;;;;2.45;1.80;;;26.50;99.90;;;;;;8235333;28;20270;-67
2023/07/30 14:58:32;;;;;;;2.05;1.85;;;26.60;99.90;;;;;;8240755;28;20192;-70
2023/07/30 15:02:34;;;;;;;2.38;1.95;;;26.80;99.90;;;;;;8237820;28;20189;-69
2023/07/30 15:06:35;;;;;;;2.25;2.05;;;26.90;99.90;;;;;;8236093;28;20210;-69
2023/07/30 15:10:37;;;;;;;1.75;1.63;;;27.10;99.90;;;;;;8238733;28;20218;-69
2023/07/30 15:14:37;;;;;;;2.97;2.08;;;27.30;99.90;;;;;;8233263;28;20306;-68
2023/07/30 15:18:38;;;;;;;2.40;2.20;;;27.20;99.90;;;;;;8244131;28;20196;-68
2023/07/30 15:22:39;;;;;;;2.35;2.15;;;27.00;99.90;;;;;;8248473;28;20246;-68
2023/07/30 15:26:40;;;;;;;2.20;1.98;;;26.90;99.90;;;;;;8242416;28;20188;-67
2023/07/30 15:30:41;;;;;;;2.25;2.05;;;26.90;99.90;;;;;;8247912;28;20222;-69
2023/07/30 15:34:41;;;;;;;3.67;2.58;;;26.80;99.90;;;;;;8241705;28;20282;-69
2023/07/30 15:38:42;;;;;;;2.50;2.30;;;26.90;99.90;;;;;;8247038;28;20211;-65
2023/07/30 15:42:43;;;;;;;2.55;2.15;;;26.80;99.90;;;;;;8244997;28;20183;-64
2023/07/30 15:46:48;;;;;;;2.25;2.05;;;26.70;99.90;;;;;;8245970;28;20188;-67
2023/07/30 15:50:49;;;;;;;2.30;2.10;;;26.50;99.90;;;;;;8251259;28;20219;-66
2023/07/30 15:54:50;;;;;;;2.70;2.22;;;26.30;99.90;;;;;;8247449;28;20187;-63
2023/07/30 15:58:51;;;;;;;4.80;2.40;;;26.30;99.90;;;;;;8246493;28;20183;-64
2023/07/30 16:02:51;;;;;;;2.30;2.10;;;26.30;99.90;;;;;;8242578;28;20187;-66
2023/07/30 16:06:54;;;;;;;1.90;1.80;;;26.50;99.90;;;;;;8253087;28;20190;-65
2023/07/30 16:11:06;;;;;;;2.15;1.90;;;26.60;99.90;;;;;;8243120;28;20219;-65
2023/07/30 16:15:07;;;;;;;2.33;2.13;;;26.30;99.90;;;;;;8239323;28;20223;-63
2023/07/30 16:19:08;;;;;;;3.70;2.47;;;25.80;99.90;;;;;;8244428;28;20426;-65
2023/07/30 16:23:08;;;;;;;3.07;2.07;;;25.20;99.90;;;;;;8246211;28;20192;-67
2023/07/30 16:27:10;;;;;;;2.73;1.80;;;25.20;99.90;;;;;;8249150;28;20297;-64
2023/07/30 16:31:11;;;;;;;3.87;1.67;;;25.10;99.90;;;;;;8244996;28;20238;-65
2023/07/30 16:35:11;;;;;;;2.80;1.40;;;24.80;99.90;;;;;;8249682;28;20184;-65
2023/07/30 16:39:13;;;;;;;2.23;1.10;;;24.70;99.90;;;;;;8244954;28;20540;-63
2023/07/30 16:43:14;;;;;;;3.93;1.33;;;24.60;99.90;;;;;;8243304;28;20192;-63
2023/07/30 16:47:15;;;;;;;1.27;1.10;;;24.40;99.90;;;;;;8240670;28;20274;-63
2023/07/30 16:51:16;;;;;;;2.13;1.20;;;24.30;99.90;;;;;;8245452;28;20805;-69
2023/07/30 16:55:17;;;;;;;3.13;1.10;;;24.20;99.90;;;;;;8244983;28;20184;-68
2023/07/30 16:59:18;;;;;;;1.30;1.17;;;24.30;99.90;;;;;;8241769;28;20605;-68
2023/07/30 17:03:18;;;;;;;1.90;1.20;;;24.40;99.90;;;;;;8240971;28;20631;-69
2023/07/30 17:07:19;;;;;;;2.40;1.30;;;24.50;99.90;;;;;;8246251;28;21857;-69
2023/07/30 17:11:21;;;;;;;2.77;2.50;;;24.40;99.90;;;;;;8241878;28;20261;-67
2023/07/30 17:15:21;;;;;;;1.60;1.50;;;24.30;99.90;;;;;;8237879;28;20208;-67
2023/07/30 17:19:22;;;;;;;1.83;1.37;;;24.00;99.90;;;;;;8242786;28;20247;-68
2023/07/30 17:23:24;;;;;;;1.40;1.30;;;23.80;99.90;;;;;;8242333;28;20563;-68
2023/07/30 17:27:25;;;;;;;3.57;1.70;;;23.60;99.90;;;;;;8246166;28;20196;-67
2023/07/30 17:31:25;;;;;;;1.37;1.27;;;23.50;99.90;;;;;;8241092;28;20211;-68
2023/07/30 17:35:26;;;;;;;2.70;1.37;;;23.30;99.90;;;;;;8249168;28;20225;-68
2023/07/30 17:39:27;;;;;;;2.57;1.30;;;23.10;99.90;;;;;;8240304;28;20192;-67
2023/07/30 17:43:28;;;;;;;2.93;1.60;;;23.00;99.90;;;;;;8238662;28;20365;-66
2023/07/30 17:47:30;;;;;;;1.70;1.40;;;22.90;99.90;;;;;;8238886;28;20268;-65
2023/07/30 17:51:35;;;;;;;1.23;1.10;;;22.70;99.90;;;;;;8233264;28;20247;-67
2023/07/30 17:56:13;;;;;;;2.93;1.10;;;22.70;99.90;;;;;;8229901;28;20199;-68
2023/07/30 18:00:14;;;;;;;5.77;1.57;;;22.30;99.90;;;;;;8244513;28;20192;-66
2023/07/30 18:04:19;;;;;;;2.93;1.27;;;21.50;1.00;;;;;;8230646;28;20238;-63
2023/07/30 18:08:20;;;;;;;1.80;1.03;;;20.60;1.00;;;;;;8231920;28;20215;-65
2023/07/30 18:12:21;;;;;;;2.57;1.20;;;19.70;1.00;;;;;;8226549;28;20242;-63
2023/07/30 18:16:22;;;;;;;2.63;0.90;;;19.00;1.00;;;;;;8231547;28;20210;-63
2023/07/30 18:20:23;;;;;;;3.73;1.60;;;18.70;46.60;;;;;;8232869;28;20196;-63
2023/07/30 18:24:24;;;;;;;3.07;1.23;;;18.20;99.90;;;;;;8229636;28;20199;-63
2023/07/30 18:28:25;;;;;;;2.63;1.40;;;18.00;99.90;;;;;;8236780;28;20198;-62
2023/07/30 18:32:25;;;;;;;3.30;1.00;;;17.90;99.90;;;;;;8229984;28;20212;-63
2023/07/30 18:36:26;;;;;;;2.77;0.90;;;17.80;99.90;;;;;;8233854;28;20191;-64
2023/07/30 18:40:27;;;;;;;3.97;1.60;;;17.70;99.90;;;;;;8232137;28;20195;-63
2023/07/30 18:44:29;;;;;;;2.57;1.80;;;17.70;1.00;;;;;;8234182;28;20194;-63
2023/07/30 18:48:31;;;;;;;4.00;2.00;;;17.70;75.20;;;;;;8240002;28;20270;-64
2023/07/30 18:52:33;;;;;;;2.83;1.70;;;17.70;99.90;;;;;;8240833;28;20360;-64
2023/07/30 18:56:34;;;;;;;2.00;1.80;;;17.60;99.90;;;;;;8239682;28;20199;-65
2023/07/30 19:00:34;;;;;;;3.33;1.77;;;17.60;1.00;;;;;;8247624;28;20187;-65
2023/07/30 19:04:35;;;;;;;3.07;2.00;;;17.50;99.90;;;;;;8226170;28;20211;-62
2023/07/30 19:08:36;;;;;;;3.63;1.90;;;17.50;99.90;;;;;;8248983;28;20310;-65
2023/07/30 19:12:37;;;;;;;2.57;1.70;;;17.50;1.00;;;;;;8227852;28;20313;-63
2023/07/30 19:16:41;;;;;;;2.00;1.80;;;17.50;99.90;;;;;;8229738;28;20203;-63
2023/07/30 19:20:42;;;;;;;4.83;2.07;;;17.50;45.80;;;;;;8235757;28;20199;-64
2023/07/30 19:24:45;;;;;;;2.50;1.57;;;17.50;99.90;;;;;;8239612;28;20196;-63
2023/07/30 19:28:48;;;;;;;3.37;1.87;;;17.50;99.90;;;;;;8240111;28;20196;-62
2023/07/30 19:32:50;;;;;;;5.70;1.97;;;17.50;99.90;;;;;;8252053;28;20215;-64
2023/07/30 19:36:51;;;;;;;2.20;1.67;;;17.40;1.00;;;;;;8242076;28;20203;-66
2023/07/30 19:40:54;;;;;;;6.00;1.83;;;17.30;71.90;;;;;;8242004;28;20223;-64
2023/07/30 19:44:54;;;;;;;2.90;1.67;;;17.30;99.90;;;;;;8237730;28;20302;-62
2023/07/30 19:48:57;;;;;;;2.63;2.00;;;17.40;1.00;;;;;;8241392;28;20319;-63
2023/07/30 19:52:58;;;;;;;6.63;2.20;;;17.40;80.70;;;;;;8237646;28;20598;-64
2023/07/30 19:56:59;;;;;;;1.83;1.70;;;17.30;99.90;;;;;;8234573;28;20194;-63
2023/07/30 20:01:01;;;;;;;4.63;1.90;;;17.30;99.90;;;;;;8239732;28;20227;-64
2023/07/30 20:05:03;;;;;;;3.17;1.77;;;17.30;1.00;;;;;;8239377;28;20192;-61
2023/07/30 20:09:03;;;;;;;3.50;1.73;;;17.30;1.00;;;;;;8243093;28;20274;-64
2023/07/30 20:13:04;;;;;;;1.90;1.70;;;17.30;1.00;;;;;;8239797;28;20223;-63
2023/07/30 20:17:06;;;;;;;5.27;1.83;;;17.30;1.00;;;;;;8238362;28;20239;-63
2023/07/30 20:21:08;;;;;;;2.80;1.97;;;17.30;24.30;;;;;;8236894;28;20219;-63
2023/07/30 20:25:09;;;;;;;2.60;2.20;;;17.20;1.00;;;;;;8252741;28;20195;-64
2023/07/30 20:29:11;;;;;;;3.67;2.23;;;17.20;99.90;;;;;;8225287;28;20246;-61
2023/07/30 20:33:11;;;;;;;4.80;2.03;;;17.10;99.90;;;;;;8241526;28;20192;-62
2023/07/30 20:37:12;;;;;;;2.43;2.23;;;17.10;99.90;;;;;;8241791;28;20210;-59
2023/07/30 20:41:13;;;;;;;2.83;2.20;;;17.00;99.90;;;;;;8242786;28;20192;-61
2023/07/30 20:45:14;;;;;;;3.20;2.27;;;17.00;99.90;;;;;;8246870;28;20195;-59
2023/07/30 20:49:14;;;;;;;2.77;2.50;;;16.90;99.90;;;;;;8234577;28;20302;-63
2023/07/30 20:53:15;;;;;;;5.40;2.87;;;16.90;99.90;;;;;;8245119;28;20187;-61
2023/07/30 20:57:16;;;;;;;5.50;2.60;;;16.80;99.90;;;;;;8242520;28;20190;-61
2023/07/30 21:01:17;;;;;;;2.67;2.40;;;16.80;99.90;;;;;;8243430;28;20198;-62